createdAt,value
2019-04-26T00:00:52.948Z,14.90
2019-04-26T00:03:23.777Z,13.50
2019-04-26T00:05:53.260Z,10.97
2019-04-26T00:08:22.652Z,10.60
2019-04-26T00:11:02.814Z,11.40
2019-04-26T00:13:39.889Z,13.03
2019-04-26T00:16:11.717Z,13.43
2019-04-26T00:18:41.842Z,12.20
2019-04-26T00:21:11.744Z,12.60
2019-04-26T00:23:41.537Z,12.83
2019-04-26T00:26:12.114Z,11.93
2019-04-26T00:28:41.741Z,11.43
2019-04-26T00:31:11.519Z,13.77
2019-04-26T00:33:41.042Z,15.00
2019-04-26T00:36:10.534Z,14.93
2019-04-26T00:38:40.405Z,12.77
2019-04-26T00:41:10.455Z,14.90
2019-04-26T00:43:39.893Z,14.13
2019-04-26T00:46:09.481Z,14.13
2019-04-26T00:48:38.998Z,14.10
2019-04-26T00:51:09.097Z,15.73
2019-04-26T00:53:41.329Z,13.83
2019-04-26T00:56:12.017Z,14.80
2019-04-26T00:58:41.229Z,14.37
2019-04-26T01:01:11.205Z,16.53
2019-04-26T01:03:40.738Z,13.73
2019-04-26T01:06:11.605Z,15.70
2019-04-26T01:08:40.745Z,16.27
2019-04-26T01:11:10.134Z,17.50
2019-04-26T01:13:39.299Z,17.97
2019-04-26T01:16:08.507Z,15.87
2019-04-26T01:18:37.565Z,16.27
2019-04-26T01:21:08.567Z,16.20
2019-04-26T01:23:41.092Z,16.00
2019-04-26T01:26:18.958Z,17.07
2019-04-26T01:28:54.503Z,19.90
2019-04-26T01:31:24.601Z,17.73
2019-04-26T01:33:53.802Z,17.50
2019-04-26T01:36:24.312Z,16.20
2019-04-26T01:38:55.045Z,18.77
2019-04-26T01:41:28.228Z,20.00
2019-04-26T01:43:58.997Z,20.83
2019-04-26T01:46:33.195Z,18.87
2019-04-26T01:49:07.887Z,19.60
2019-04-26T01:51:38.663Z,18.80
2019-04-26T01:54:08.750Z,20.77
2019-04-26T01:56:38.293Z,21.07
2019-04-26T01:59:10.758Z,18.57
2019-04-26T02:01:59.850Z,21.67
2019-04-26T02:04:30.549Z,22.13
2019-04-26T02:07:00.649Z,20.43
2019-04-26T02:09:30.554Z,23.10
2019-04-26T02:12:00.057Z,20.70
2019-04-26T02:14:29.557Z,21.43
2019-04-26T02:17:00.246Z,22.10
2019-04-26T02:19:29.773Z,21.63
2019-04-26T02:22:13.059Z,21.20
2019-04-26T02:24:44.218Z,19.53
2019-04-26T02:27:21.698Z,21.47
2019-04-26T02:29:51.382Z,21.80
2019-04-26T02:32:21.585Z,20.23
2019-04-26T02:34:51.145Z,19.47
2019-04-26T02:37:20.875Z,23.77
2019-04-26T02:39:52.181Z,21.67
2019-04-26T02:42:34.815Z,18.83
2019-04-26T02:45:22.168Z,18.37
2019-04-26T02:47:55.910Z,21.30
2019-04-26T02:50:30.288Z,19.03
2019-04-26T02:53:02.210Z,17.87
2019-04-26T02:55:49.391Z,18.53
2019-04-26T02:58:21.676Z,19.60
2019-04-26T03:00:51.820Z,17.90
2019-04-26T03:03:24.582Z,19.63
2019-04-26T03:05:54.981Z,21.40
2019-04-26T03:08:26.993Z,24.27
2019-04-26T03:10:57.665Z,28.23
2019-04-26T03:13:32.950Z,22.23
2019-04-26T03:16:19.314Z,21.23
2019-04-26T03:18:56.131Z,26.00
2019-04-26T03:21:26.827Z,24.87
2019-04-26T03:24:00.213Z,27.23
2019-04-26T03:26:37.469Z,25.40
2019-04-26T03:29:19.641Z,23.87
2019-04-26T03:32:05.154Z,24.47
2019-04-26T03:34:50.718Z,27.60
2019-04-26T03:37:42.591Z,22.83
2019-04-26T03:40:28.334Z,22.43
2019-04-26T03:43:01.830Z,22.17
2019-04-26T03:45:50.463Z,22.07
2019-04-26T03:48:43.010Z,21.10
2019-04-26T03:51:33.830Z,23.17
2019-04-26T03:54:16.630Z,25.60
2019-04-26T03:56:55.679Z,24.00
2019-04-26T03:59:45.909Z,29.53
2019-04-26T04:02:20.160Z,22.90
2019-04-26T04:05:03.160Z,25.30
2019-04-26T04:07:39.854Z,26.20
2019-04-26T04:10:15.630Z,26.70
2019-04-26T04:13:02.497Z,23.00
2019-04-26T04:15:37.896Z,22.67
2019-04-26T04:18:10.904Z,26.13
2019-04-26T04:20:56.152Z,27.47
2019-04-26T04:23:45.074Z,27.43
2019-04-26T04:26:17.542Z,25.27
2019-04-26T04:29:18.401Z,26.33
2019-04-26T04:31:53.706Z,24.67
2019-04-26T04:34:27.415Z,28.57
2019-04-26T04:36:59.894Z,25.43
2019-04-26T04:39:30.580Z,31.33
2019-04-26T04:42:19.422Z,25.17
2019-04-26T04:45:11.405Z,22.90
2019-04-26T04:47:57.249Z,24.73
2019-04-26T04:50:34.253Z,21.37
2019-04-26T04:53:09.533Z,25.43
2019-04-26T04:55:57.130Z,26.40
2019-04-26T04:58:38.507Z,27.23
2019-04-26T05:01:27.434Z,25.47
2019-04-26T05:04:10.562Z,26.07
2019-04-26T05:07:14.755Z,24.00
2019-04-26T05:10:04.737Z,30.30
2019-04-26T05:12:40.101Z,24.43
2019-04-26T05:15:22.990Z,29.10
2019-04-26T05:18:06.961Z,26.43
2019-04-26T05:20:54.157Z,28.37
2019-04-26T05:23:41.533Z,26.90
2019-04-26T05:26:29.738Z,26.13
2019-04-26T05:29:18.914Z,27.70
2019-04-26T05:32:06.514Z,31.57
2019-04-26T05:35:12.014Z,28.53
2019-04-26T05:37:46.700Z,30.07
2019-04-26T05:40:20.121Z,31.50
2019-04-26T05:43:08.849Z,31.57
2019-04-26T05:46:04.038Z,31.17
2019-04-26T05:49:08.950Z,30.23
2019-04-26T05:52:15.953Z,30.37
2019-04-26T05:55:09.434Z,29.03
2019-04-26T05:58:04.358Z,33.63
2019-04-26T06:00:57.914Z,29.57
2019-04-26T06:03:50.967Z,32.53
2019-04-26T06:06:33.821Z,30.87
2019-04-26T06:09:13.582Z,30.00
2019-04-26T06:12:08.145Z,31.13
2019-04-26T06:15:01.375Z,30.03
2019-04-26T06:17:51.607Z,35.50
2019-04-26T06:20:33.266Z,29.67
2019-04-26T06:23:08.462Z,34.13
2019-04-26T06:25:50.007Z,32.47
2019-04-26T06:28:45.450Z,30.90
2019-04-26T06:31:26.845Z,37.80
2019-04-26T06:33:59.473Z,34.10
2019-04-26T06:36:33.674Z,31.43
2019-04-26T06:39:10.656Z,34.30
2019-04-26T06:42:07.292Z,33.57
2019-04-26T06:44:58.338Z,34.83
2019-04-26T06:47:41.281Z,36.03
2019-04-26T06:50:21.085Z,33.10
2019-04-26T06:52:59.481Z,33.50
2019-04-26T06:55:31.823Z,35.07
2019-04-26T06:58:20.965Z,33.70
2019-04-26T07:01:18.575Z,42.97
2019-04-26T07:04:05.989Z,27.87
2019-04-26T07:06:47.485Z,31.83
2019-04-26T07:09:19.998Z,34.37
2019-04-26T07:12:25.201Z,25.70
2019-04-26T07:15:07.876Z,26.10
2019-04-26T07:18:13.670Z,27.57
2019-04-26T07:20:53.542Z,29.23
2019-04-26T07:23:36.434Z,28.03
2019-04-26T07:26:25.456Z,30.03
2019-04-26T07:29:07.384Z,39.47
2019-04-26T07:31:51.785Z,32.73
2019-04-26T07:34:49.548Z,33.07
2019-04-26T07:37:53.767Z,32.43
2019-04-26T07:40:28.036Z,31.63
2019-04-26T07:43:21.591Z,36.57
2019-04-26T07:45:59.758Z,30.77
2019-04-26T07:48:41.058Z,32.20
2019-04-26T07:51:22.157Z,32.83
2019-04-26T07:54:14.020Z,35.03
2019-04-26T07:57:03.218Z,28.60
2019-04-26T07:59:54.982Z,31.43
2019-04-26T08:02:34.757Z,28.70
2019-04-26T08:05:16.450Z,28.27
2019-04-26T08:07:55.112Z,26.60
2019-04-26T08:10:27.389Z,26.93
2019-04-26T08:13:06.158Z,24.33
2019-04-26T08:15:55.409Z,23.23
2019-04-26T08:18:32.273Z,22.93
2019-04-26T08:21:13.803Z,26.05
2019-04-26T08:23:45.823Z,25.23
2019-04-26T08:26:18.273Z,23.92
2019-04-26T08:28:50.473Z,20.57
2019-04-26T08:31:24.733Z,19.77
2019-04-26T08:33:57.973Z,18.12
2019-04-26T08:36:31.739Z,26.50
2019-04-26T08:39:02.059Z,24.50
2019-04-26T08:41:35.250Z,66.17
2019-04-26T08:44:23.794Z,37.00
2019-04-26T08:46:59.426Z,24.73
2019-04-26T08:49:31.002Z,31.48
2019-04-26T08:52:13.875Z,29.05
2019-04-26T08:54:39.334Z,21.70
2019-04-26T08:57:10.994Z,16.90
2019-04-26T08:59:49.121Z,16.00
2019-04-26T09:02:25.734Z,15.97
2019-04-26T09:05:11.694Z,15.27
2019-04-26T09:07:44.317Z,14.57
2019-04-26T09:10:16.330Z,19.63
2019-04-26T09:12:47.965Z,15.30
2019-04-26T09:15:26.318Z,13.63
2019-04-26T09:17:55.898Z,16.97
2019-04-26T09:20:28.926Z,13.30
2019-04-26T09:23:05.006Z,15.80
2019-04-26T09:25:39.327Z,10.60
2019-04-26T09:28:10.838Z,21.87
2019-04-26T09:30:50.992Z,13.30
2019-04-26T09:33:22.265Z,8.93
2019-04-26T09:35:51.833Z,8.87
2019-04-26T09:38:21.321Z,13.10
2019-04-26T09:40:52.578Z,10.83
2019-04-26T09:43:23.758Z,6.47
2019-04-26T09:46:10.685Z,7.60
2019-04-26T09:48:41.802Z,6.17
2019-04-26T09:51:11.861Z,8.83
2019-04-26T09:53:43.276Z,7.27
2019-04-26T09:56:12.633Z,5.40
2019-04-26T09:58:42.126Z,9.40
2019-04-26T10:01:11.753Z,8.53
2019-04-26T10:03:41.229Z,6.90
2019-04-26T10:06:10.893Z,11.33
2019-04-26T10:08:43.350Z,10.73
2019-04-26T10:11:13.344Z,10.97
2019-04-26T10:13:44.462Z,14.03
2019-04-26T10:16:15.646Z,13.23
2019-04-26T10:18:46.774Z,10.67
2019-04-26T10:21:16.318Z,9.57
2019-04-26T10:23:45.882Z,11.27
2019-04-26T10:26:15.520Z,5.72
2019-04-26T10:28:46.708Z,5.80
2019-04-26T10:31:17.168Z,9.37
2019-04-26T10:33:46.970Z,8.45
2019-04-26T10:36:16.589Z,7.97
2019-04-26T10:38:46.066Z,5.72
2019-04-26T10:41:15.831Z,7.80
2019-04-26T10:43:45.322Z,9.93
2019-04-26T10:46:14.852Z,8.40
2019-04-26T10:48:45.439Z,6.33
2019-04-26T10:51:17.234Z,9.43
2019-04-26T10:53:51.340Z,9.80
2019-04-26T10:56:24.234Z,5.47
2019-04-26T10:58:55.329Z,6.47
2019-04-26T11:01:24.883Z,9.30
2019-04-26T11:03:54.363Z,12.40
2019-04-26T11:06:24.224Z,7.97
2019-04-26T11:08:55.153Z,10.23
2019-04-26T11:11:24.781Z,18.30
2019-04-26T11:13:54.328Z,10.13
2019-04-26T11:16:24.021Z,8.67
2019-04-26T11:18:53.569Z,7.83
2019-04-26T11:21:23.117Z,7.50
2019-04-26T11:23:52.606Z,12.63
2019-04-26T11:26:22.097Z,8.73
2019-04-26T11:28:55.518Z,10.80
2019-04-26T11:31:23.310Z,7.23
2019-04-26T11:34:04.701Z,9.00
2019-04-26T11:36:25.104Z,8.47
2019-04-26T11:38:54.589Z,5.57
2019-04-26T11:41:24.142Z,5.47
2019-04-26T11:43:54.550Z,5.27
2019-04-26T11:46:29.123Z,5.23
2019-04-26T11:48:59.172Z,3.10
2019-04-26T11:51:27.493Z,6.20
2019-04-26T11:53:58.005Z,5.50
2019-04-26T11:56:27.557Z,5.47
2019-04-26T11:58:58.370Z,7.13
2019-04-26T12:01:29.726Z,4.60
2019-04-26T12:04:01.020Z,8.33
2019-04-26T12:06:44.317Z,4.67
2019-04-26T12:09:27.165Z,6.50
2019-04-26T12:12:04.401Z,4.70
2019-04-26T12:14:29.473Z,5.33
2019-04-26T12:17:00.915Z,5.43
2019-04-26T12:19:30.317Z,4.40
2019-04-26T12:21:59.855Z,4.20
2019-04-26T12:24:32.461Z,9.67
2019-04-26T12:27:00.695Z,3.73
2019-04-26T12:29:30.290Z,5.60
2019-04-26T12:31:59.838Z,4.50
2019-04-26T12:34:29.403Z,4.87
2019-04-26T12:36:58.938Z,3.63
2019-04-26T12:39:32.378Z,4.13
2019-04-26T12:41:59.764Z,9.93
2019-04-26T12:44:32.138Z,8.53
2019-04-26T12:47:06.698Z,7.70
2019-04-26T12:49:36.261Z,5.30
2019-04-26T12:52:05.730Z,4.57
2019-04-26T12:54:35.287Z,8.10
2019-04-26T12:57:05.815Z,5.70
2019-04-26T12:59:44.046Z,5.03
2019-04-26T13:02:07.254Z,4.47
2019-04-26T13:04:40.590Z,6.23
2019-04-26T13:07:23.551Z,6.97
2019-04-26T13:09:57.244Z,3.97
2019-04-26T13:12:29.795Z,4.57
2019-04-26T13:15:21.274Z,5.90
2019-04-26T13:17:52.455Z,3.90
2019-04-26T13:20:24.325Z,6.03
2019-04-26T13:22:54.364Z,6.50
2019-04-26T13:25:26.473Z,4.47
2019-04-26T13:27:55.734Z,5.33
2019-04-26T13:30:32.734Z,4.00
2019-04-26T13:32:56.457Z,5.57
2019-04-26T13:35:25.957Z,4.87
2019-04-26T13:37:55.494Z,4.53
2019-04-26T13:40:25.738Z,6.00
2019-04-26T13:42:55.397Z,7.20
2019-04-26T13:45:28.917Z,3.53
2019-04-26T13:48:16.117Z,4.20
2019-04-26T13:50:50.032Z,4.70
2019-04-26T13:53:22.244Z,4.53
2019-04-26T13:55:50.838Z,3.47
2019-04-26T13:58:23.407Z,5.67
2019-04-26T14:00:51.594Z,3.70
2019-04-26T14:03:21.137Z,3.43
2019-04-26T14:05:50.633Z,3.73
2019-04-26T14:08:20.106Z,3.03
2019-04-26T14:10:51.343Z,6.80
2019-04-26T14:13:25.061Z,3.53
2019-04-26T14:15:52.326Z,3.63
2019-04-26T14:18:21.869Z,4.03
2019-04-26T14:20:54.825Z,6.30
2019-04-26T14:23:26.853Z,4.13
2019-04-26T14:26:06.959Z,5.90
2019-04-26T14:28:36.619Z,4.53
2019-04-26T14:31:06.226Z,7.97
2019-04-26T14:33:35.787Z,4.97
2019-04-26T14:36:17.152Z,5.70
2019-04-26T14:38:40.088Z,7.53
2019-04-26T14:41:07.877Z,8.37
2019-04-26T14:43:41.147Z,8.00
2019-04-26T14:46:10.544Z,7.37
2019-04-26T14:48:40.614Z,6.40
2019-04-26T14:51:12.548Z,16.23
2019-04-26T14:53:41.853Z,12.67
2019-04-26T14:56:11.359Z,6.70
2019-04-26T14:58:42.302Z,15.80
2019-04-26T15:01:13.511Z,3.63
2019-04-26T15:03:44.622Z,6.27
2019-04-26T15:06:20.380Z,6.27
2019-04-26T15:08:49.557Z,6.17
2019-04-26T15:11:18.966Z,14.53
2019-04-26T15:13:48.689Z,7.40
2019-04-26T15:16:17.837Z,9.40
2019-04-26T15:18:46.889Z,10.63
2019-04-26T15:21:16.337Z,7.70
2019-04-26T15:23:45.549Z,10.03
2019-04-26T15:26:18.488Z,10.57
2019-04-26T15:28:50.530Z,11.83
2019-04-26T15:31:17.095Z,9.73
2019-04-26T15:33:48.753Z,10.67
2019-04-26T15:36:18.958Z,10.17
2019-04-26T15:38:49.037Z,12.33
2019-04-26T15:41:35.832Z,9.17
2019-04-26T15:44:11.516Z,8.67
2019-04-26T15:46:48.681Z,8.00
2019-04-26T15:49:26.199Z,7.10
2019-04-26T15:51:56.301Z,7.10
2019-04-26T15:54:26.422Z,10.53
2019-04-26T15:56:56.040Z,8.27
2019-04-26T15:59:25.586Z,8.53
2019-04-26T16:01:56.423Z,5.17
2019-04-26T16:04:25.730Z,7.50
2019-04-26T16:06:55.190Z,6.57
2019-04-26T16:09:24.405Z,6.23
2019-04-26T16:11:55.241Z,6.67
2019-04-26T16:14:30.974Z,7.43
2019-04-26T16:16:58.345Z,6.33
2019-04-26T16:19:26.887Z,9.40
2019-04-26T16:21:56.938Z,19.27
2019-04-26T16:24:27.931Z,7.57
2019-04-26T16:26:57.654Z,6.70
2019-04-26T16:29:28.830Z,7.70
2019-04-26T16:32:00.016Z,7.93
2019-04-26T16:34:34.029Z,7.37
2019-04-26T16:37:03.842Z,8.43
2019-04-26T16:39:38.881Z,8.47
2019-04-26T16:42:07.415Z,8.03
2019-04-26T16:44:36.101Z,7.93
2019-04-26T16:47:06.108Z,8.47
2019-04-26T16:49:41.925Z,9.43
2019-04-26T16:52:07.417Z,8.47
2019-04-26T16:54:37.125Z,11.93
2019-04-26T16:57:11.383Z,9.53
2019-04-26T16:59:46.597Z,12.57
2019-04-26T17:02:09.370Z,12.90
2019-04-26T17:04:40.093Z,14.00
2019-04-26T17:07:09.654Z,11.00
2019-04-26T17:09:56.988Z,11.57
2019-04-26T17:12:14.425Z,10.07
2019-04-26T17:14:47.797Z,10.33
2019-04-26T17:17:14.216Z,7.87
2019-04-26T17:19:43.877Z,9.27
2019-04-26T17:22:20.816Z,8.73
2019-04-26T17:25:03.995Z,10.40
2019-04-26T17:27:33.618Z,8.73
2019-04-26T17:30:04.867Z,8.17
2019-04-26T17:32:35.095Z,9.30
2019-04-26T17:35:07.609Z,6.63
2019-04-26T17:37:37.867Z,5.87
2019-04-26T17:40:07.602Z,5.70
2019-04-26T17:42:37.066Z,4.83
2019-04-26T17:45:07.368Z,5.05
2019-04-26T17:47:40.119Z,3.60
2019-04-26T17:50:08.382Z,5.30
2019-04-26T17:52:37.926Z,4.90
2019-04-26T17:55:10.994Z,3.77
2019-04-26T17:57:43.637Z,3.73
2019-04-26T18:00:13.751Z,4.37
2019-04-26T18:02:47.779Z,3.67
2019-04-26T18:05:13.753Z,4.03
2019-04-26T18:07:50.265Z,3.57
2019-04-26T18:10:14.730Z,6.17
2019-04-26T18:12:46.050Z,3.10
2019-04-26T18:15:19.153Z,3.40
2019-04-26T18:17:51.634Z,4.20
2019-04-26T18:20:41.433Z,3.37
2019-04-26T18:23:15.458Z,3.33
2019-04-26T18:25:46.385Z,4.33
2019-04-26T18:28:16.331Z,4.50
2019-04-26T18:30:47.640Z,4.30
2019-04-26T18:33:21.418Z,4.50
2019-04-26T18:35:49.135Z,3.70
2019-04-26T18:38:19.933Z,4.70
2019-04-26T18:41:00.981Z,5.23
2019-04-26T18:43:24.141Z,4.20
2019-04-26T18:45:53.559Z,4.67
2019-04-26T18:48:23.626Z,4.23
2019-04-26T18:50:53.255Z,5.00
2019-04-26T18:53:24.446Z,5.30
2019-04-26T18:55:54.613Z,6.53
2019-04-26T18:58:24.091Z,4.83
2019-04-26T19:00:57.498Z,6.90
2019-04-26T19:03:29.950Z,6.77
2019-04-26T19:05:58.539Z,6.33
2019-04-26T19:08:28.891Z,7.87
2019-04-26T19:11:01.357Z,6.07
2019-04-26T19:13:43.400Z,6.87
2019-04-26T19:16:32.829Z,10.43
2019-04-26T19:19:06.953Z,10.73
2019-04-26T19:21:40.261Z,11.50
2019-04-26T19:24:17.263Z,14.70
2019-04-26T19:26:44.139Z,14.63
2019-04-26T19:29:17.836Z,19.00
2019-04-26T19:31:43.070Z,15.40
2019-04-26T19:34:12.622Z,19.83
2019-04-26T19:36:42.288Z,21.43
2019-04-26T19:39:12.126Z,25.97
2019-04-26T19:41:42.027Z,23.97
2019-04-26T19:44:14.620Z,27.17
2019-04-26T19:46:44.633Z,26.47
2019-04-26T19:49:33.369Z,29.93
2019-04-26T19:52:06.685Z,28.27
2019-04-26T19:54:38.563Z,31.60
2019-04-26T19:57:09.857Z,33.53
2019-04-26T19:59:39.417Z,37.43
2019-04-26T20:02:09.054Z,31.93
2019-04-26T20:04:38.617Z,34.87
2019-04-26T20:07:08.308Z,36.93
2019-04-26T20:09:37.986Z,31.77
2019-04-26T20:12:07.558Z,34.87
2019-04-26T20:14:47.273Z,33.50
2019-04-26T20:17:08.327Z,36.90
2019-04-26T20:19:37.893Z,34.63
2019-04-26T20:22:07.373Z,32.20
2019-04-26T20:24:36.930Z,32.10
2019-04-26T20:27:06.414Z,31.00
2019-04-26T20:29:35.987Z,30.43
2019-04-26T20:32:07.185Z,31.80
2019-04-26T20:34:36.737Z,32.87
2019-04-26T20:37:06.939Z,32.13
2019-04-26T20:39:36.834Z,33.03
2019-04-26T20:42:06.826Z,33.60
2019-04-26T20:44:49.064Z,33.23
2019-04-26T20:47:14.378Z,35.90
2019-04-26T20:49:49.376Z,36.27
2019-04-26T20:52:10.487Z,37.33
2019-04-26T20:54:41.602Z,36.77
2019-04-26T20:57:12.380Z,39.30
2019-04-26T20:59:43.359Z,39.17
2019-04-26T21:02:16.333Z,37.73
2019-04-26T21:04:46.014Z,36.70
2019-04-26T21:07:15.449Z,38.17
2019-04-26T21:09:45.021Z,40.63
2019-04-26T21:12:17.635Z,36.47
2019-04-26T21:14:45.903Z,35.23
2019-04-26T21:17:15.469Z,37.53
2019-04-26T21:19:44.946Z,38.93
2019-04-26T21:22:14.522Z,42.17
2019-04-26T21:24:45.714Z,44.97
2019-04-26T21:27:16.855Z,46.23
2019-04-26T21:29:52.554Z,48.50
2019-04-26T21:32:24.612Z,51.77
2019-04-26T21:34:56.874Z,51.43
2019-04-26T21:37:30.760Z,54.77
2019-04-26T21:40:07.687Z,57.47
2019-04-26T21:42:37.317Z,56.87
2019-04-26T21:45:07.942Z,53.53
2019-04-26T21:47:37.497Z,58.77
2019-04-26T21:50:07.313Z,58.73
2019-04-26T21:52:36.872Z,57.77
2019-04-26T21:55:06.818Z,60.17
2019-04-26T21:57:55.714Z,59.40
2019-04-26T22:00:26.930Z,58.60
2019-04-26T22:02:56.790Z,59.87
2019-04-26T22:05:26.387Z,53.60
2019-04-26T22:07:56.090Z,54.27
2019-04-26T22:10:33.060Z,53.83
2019-04-26T22:13:05.729Z,62.03
2019-04-26T22:15:48.952Z,52.83
2019-04-26T22:18:21.932Z,45.13
2019-04-26T22:20:56.044Z,42.10
2019-04-26T22:23:27.209Z,37.70
2019-04-26T22:26:00.155Z,41.27
2019-04-26T22:28:31.347Z,45.50
2019-04-26T22:31:06.814Z,40.80
2019-04-26T22:33:34.115Z,41.83
2019-04-26T22:36:03.973Z,35.63
2019-04-26T22:38:34.107Z,40.83
2019-04-26T22:41:03.741Z,34.57
2019-04-26T22:43:35.093Z,38.43
2019-04-26T22:46:28.209Z,36.20
2019-04-26T22:49:01.079Z,33.50
2019-04-26T22:51:28.619Z,30.47
2019-04-26T22:54:02.603Z,31.90
2019-04-26T22:56:32.524Z,31.40
2019-04-26T22:59:04.734Z,33.53
2019-04-26T23:01:33.044Z,28.77
2019-04-26T23:04:03.446Z,33.53
2019-04-26T23:06:33.778Z,34.40
2019-04-26T23:09:03.426Z,34.83
2019-04-26T23:11:33.356Z,34.90
2019-04-26T23:14:20.646Z,42.90
2019-04-26T23:17:04.061Z,34.67
2019-04-26T23:19:27.432Z,39.17
2019-04-26T23:21:58.554Z,40.70
2019-04-26T23:24:28.066Z,37.30
2019-04-26T23:26:57.546Z,37.03
2019-04-26T23:29:27.113Z,39.43
2019-04-26T23:31:56.669Z,33.97
2019-04-26T23:34:26.238Z,35.93
2019-04-26T23:36:55.798Z,36.63
2019-04-26T23:39:25.297Z,37.33
2019-04-26T23:41:54.862Z,35.80
2019-04-26T23:44:24.358Z,37.03
2019-04-26T23:46:54.945Z,42.87
2019-04-26T23:49:25.297Z,38.33
2019-04-26T23:51:54.917Z,43.93
2019-04-26T23:54:28.166Z,35.53
2019-04-26T23:56:57.859Z,43.13
2019-04-26T23:59:26.905Z,38.90
